Terminal Aerodrome Forecast
Issued by NWS

Home | Current Version | Previous Version | Text Only | Print | Product List | Glossary On
Versions: 1 2 3 4 5 6 7 8 9 10 11 12 13 14 15 16 17 18
000
FTUS41 KAKQ 292300
TAFPHF
TAF
KPHF 292325Z 3000/3024 10005KT P6SM BKN050
     FM300700 13003KT P6SM BKN025 OVC050
     FM301500 13007KT P6SM SCT040=

USA.gov is the U.S. government's official web portal to all federal, state and local government web resources and services.